Snook, Texas
Current Conditions -  °F | °C
As of 6:53 PM on Saturday 25 Oct 2014 (Local Time) from KCLL Reporting Station
Clear Clear  
Wind Chill: 26°   Ceiling: Unl
Heat Index: 27°   Visibility: 10mi
Dew Point: 17°   Wind: 3mph
Humidity: 56%   Direction: 130°SE
Pressure: 30.08"   Gusts: NA
Location:  30.49°N, 96.46°W
Report Text: KCLL 252353Z 13003KT 10SM CLR 26/17 A3008 RMK AO2 SLP182 T02610167 10294 20261 57005
Loading
Personal Weather Stations






























Interactive Weather Map
Tropical Storm Tracking
New forecast layout! Learn more

10-Day Weather Forecast

Advertisements
Track Severe Weather on mobile